Tropical Cyclones
[Index]
Main Index Home Page Stock Weather Photos Extreme Storms Discussion Storm News and Storm Chasing Reports Tropical Cyclones / Hurricanes / Typhoons Weather Data and Links Wild Fires / Bushfires Weather Observation Techniques Weather Picture Catalogue Tornado Pictures and Reports Stock Video Footage and DVDs for sale
Season 1979-1980 Tropical Cyclone BRIAN Track Map
Season 1979-1980 Summaries: [BoM-AU] [JTWC-AU] [JTWC-SIO] [JTWC-SPAC] [JTWC-SH]
<<- Previous TC | BoM 1979-1980 Season | Next TC ->>

click for intensity scale information  Lat/long Grid: Show Hide

 Date Labels: Show Hide

Bureau of Meteorology Tropical Cyclone Data

Name: BRIAN
Number: 599 / 197980_06

18 Jan 1980 00:00 UTC to 27 Jan 1980 00:00 UTC

    date/time    lat    long    hPa   cat  kts
1980-01-18 00   10.1   130.4   1003                     
1980-01-18 06   11.2   129.8   1003                     
1980-01-18 12   12.2   128.9   1002                     
1980-01-18 18   12.8   127.7   1001                     
1980-01-19 00   13.2   126.6   1000                     
1980-01-19 06   13.4   125.7    998                     
1980-01-19 12   13.4   124.6    996                     
1980-01-19 18   13.4   123.2    993    1                
1980-01-20 00   13.8   121.7    990    1                
1980-01-20 06   14.3   120.4    986    1                
1980-01-20 12   15.2   119.0    982    2                
1980-01-20 18   15.8   117.2    975    2                
1980-01-21 00   15.8   115.3    970    3                
1980-01-21 06   16.1   113.9    963    3                
1980-01-21 12   16.3   112.2    955    4                
1980-01-21 18   16.8   111.7    948    4                
1980-01-22 00   17.1   108.9    940    4                
1980-01-22 06   17.2   107.3    937    4                
1980-01-22 12   17.3   105.8    934    4                
1980-01-22 18   17.4   104.4    932    4                
1980-01-23 00   18.0   103.0    930    4                
1980-01-23 06   18.5   101.8    933    4                
1980-01-23 12   19.3   100.7    940    4                
1980-01-23 18   20.0    99.8    948    4                
1980-01-24 00   20.9    98.6    955    4                
1980-01-24 06   21.8    97.6    961    3                
1980-01-24 12   22.7    96.5    966    3                
1980-01-24 18   23.6    95.4    971    2                
1980-01-25 00   24.6    94.4    975    2                
1980-01-25 06   25.7    93.2    979    2                
1980-01-25 12   27.5    92.3    983    2                
1980-01-25 18   29.3    92.3    987    1                
1980-01-26 00   30.4    92.7    990    1                
1980-01-26 06   31.2    93.0    992    1                
1980-01-26 12   31.7    93.2    994    1                
1980-01-26 18   32.1    93.5    996                     
1980-01-27 00   32.4    93.7    998                     
Winds are 10-min average.

Tropical cyclone tracks developed by Michael Bath using data from the Bureau of Meteorology and Google Maps.


[Australian Severe Weather index] [Copyright Notice] [Email Contacts] [Search This Site] [Privacy Policy]
Document: tropical_cyclone_brian.htm Updated: 30 May 2013